Friday, October 31, 2014

  Over 45,111,151 pages visited!

GMT:
16:54
PACIFIC:
9:54:34 AM
MOUNTAIN:
10:54:34 AM

CENTRAL:
11:54:34 AM

EASTERN:
12:54:34 PM
ATLANTIC:
1:54:34 PM
NEWFOUNDLAND:
2:24:34 PM
 

 


Watches/Warnings
Current Conditions
Radar/Satellite
Lightning Images


Current Weather Conditions For TORONTO PEARSON,ON

 


Light Rain
 

Temperature: 06C / 43F
Dew Point: 05 C / 41F
Humidity: 93 %
Pressure: 1014.1 mbs (29.95 inches)
Visibility: 9.7 kms (6 SM)
Wind Direction: ESE (110)
Wind Speed: 11.1 Km/h (6.9 MPH)
Max Wind Gust: No Gusts
Humidex: N/A
WindChill: N/A
    

Observation Information

Date/Time: Friday, October 31, 2014 @ 16:00Z
Local Time:
Metar Coded: CYYZ 311600Z 11006KT 6SM -RA BKN009 OVC017 06/05 A2993 RMK SC6SC2 SLP141

 

 

                   1997-2014 The Ontario Weather Page